sensor_id;sensor_type;location;lat;lon;timestamp;temperature;humidity
29007;DHT22;16104;48.642;9.008;2023-09-19T01:03:20;18.80;67.90
29007;DHT22;16104;48.642;9.008;2023-09-19T01:08:16;18.80;68.10
29007;DHT22;16104;48.642;9.008;2023-09-19T01:13:35;18.80;68.00
29007;DHT22;16104;48.642;9.008;2023-09-19T02:04:21;18.70;68.00
29007;DHT22;16104;48.642;9.008;2023-09-19T02:09:17;18.70;68.70
29007;DHT22;16104;48.642;9.008;2023-09-19T02:14:12;18.70;67.90
29007;DHT22;16104;48.642;9.008;2023-09-19T03:05:17;18.40;68.40
29007;DHT22;16104;48.642;9.008;2023-09-19T03:10:14;18.40;68.80
29007;DHT22;16104;48.642;9.008;2023-09-19T03:15:11;18.40;68.90
29007;DHT22;16104;48.642;9.008;2023-09-19T03:20:07;18.40;69.10
29007;DHT22;16104;48.642;9.008;2023-09-19T03:25:04;18.40;69.30
29007;DHT22;16104;48.642;9.008;2023-09-19T03:30:04;18.40;69.40
29007;DHT22;16104;48.642;9.008;2023-09-19T03:35:04;18.40;69.60
29007;DHT22;16104;48.642;9.008;2023-09-19T03:40:02;18.50;69.70
29007;DHT22;16104;48.642;9.008;2023-09-19T03:45:00;18.50;69.70
29007;DHT22;16104;48.642;9.008;2023-09-19T03:49:59;18.50;69.80
29007;DHT22;16104;48.642;9.008;2023-09-19T03:54:55;18.50;69.90
29007;DHT22;16104;48.642;9.008;2023-09-19T03:59:50;18.50;69.80
29007;DHT22;16104;48.642;9.008;2023-09-19T04:04:49;18.50;69.90
29007;DHT22;16104;48.642;9.008;2023-09-19T04:09:44;18.50;69.80
29007;DHT22;16104;48.642;9.008;2023-09-19T04:14:41;18.50;69.90
29007;DHT22;16104;48.642;9.008;2023-09-19T04:19:37;18.50;70.00
29007;DHT22;16104;48.642;9.008;2023-09-19T04:24:32;18.50;70.00
29007;DHT22;16104;48.642;9.008;2023-09-19T04:29:29;18.50;70.00
29007;DHT22;16104;48.642;9.008;2023-09-19T04:34:24;18.50;70.10
29007;DHT22;16104;48.642;9.008;2023-09-19T04:39:20;18.50;70.10
29007;DHT22;16104;48.642;9.008;2023-09-19T04:44:16;18.50;70.10
29007;DHT22;16104;48.642;9.008;2023-09-19T04:49:12;18.60;70.20
29007;DHT22;16104;48.642;9.008;2023-09-19T04:54:08;18.60;70.10
29007;DHT22;16104;48.642;9.008;2023-09-19T04:59:03;18.60;70.10
29007;DHT22;16104;48.642;9.008;2023-09-19T05:04:00;18.60;70.10
29007;DHT22;16104;48.642;9.008;2023-09-19T05:08:56;18.60;70.20
29007;DHT22;16104;48.642;9.008;2023-09-19T05:13:51;18.60;70.30
29007;DHT22;16104;48.642;9.008;2023-09-19T05:18:48;18.60;70.30
29007;DHT22;16104;48.642;9.008;2023-09-19T05:23:45;18.60;70.40
29007;DHT22;16104;48.642;9.008;2023-09-19T05:28:40;18.60;71.20
29007;DHT22;16104;48.642;9.008;2023-09-19T05:33:36;18.60;70.40
29007;DHT22;16104;48.642;9.008;2023-09-19T05:38:31;18.60;70.50
29007;DHT22;16104;48.642;9.008;2023-09-19T05:43:28;18.60;70.70
29007;DHT22;16104;48.642;9.008;2023-09-19T05:48:23;18.60;70.80
29007;DHT22;16104;48.642;9.008;2023-09-19T05:53:19;18.60;70.80
29007;DHT22;16104;48.642;9.008;2023-09-19T05:58:14;18.60;70.80
29007;DHT22;16104;48.642;9.008;2023-09-19T06:03:10;18.60;70.80
29007;DHT22;16104;48.642;9.008;2023-09-19T06:08:07;18.60;70.80
29007;DHT22;16104;48.642;9.008;2023-09-19T06:13:03;18.60;70.80
29007;DHT22;16104;48.642;9.008;2023-09-19T06:18:05;18.60;71.00
29007;DHT22;16104;48.642;9.008;2023-09-19T06:23:07;18.60;70.60
29007;DHT22;16104;48.642;9.008;2023-09-19T06:28:03;18.60;70.30
29007;DHT22;16104;48.642;9.008;2023-09-19T06:33:00;18.60;69.80
29007;DHT22;16104;48.642;9.008;2023-09-19T06:37:56;18.60;69.90
29007;DHT22;16104;48.642;9.008;2023-09-19T06:42:53;18.60;70.30
29007;DHT22;16104;48.642;9.008;2023-09-19T06:47:50;18.60;70.60
29007;DHT22;16104;48.642;9.008;2023-09-19T06:52:46;18.60;71.00
29007;DHT22;16104;48.642;9.008;2023-09-19T06:57:46;18.60;71.00
29007;DHT22;16104;48.642;9.008;2023-09-19T07:02:42;18.70;71.30
29007;DHT22;16104;48.642;9.008;2023-09-19T07:07:37;18.80;71.60
29007;DHT22;16104;48.642;9.008;2023-09-19T07:12:33;18.90;71.20
29007;DHT22;16104;48.642;9.008;2023-09-19T07:17:28;19.00;70.70
29007;DHT22;16104;48.642;9.008;2023-09-19T07:22:28;19.00;70.20
29007;DHT22;16104;48.642;9.008;2023-09-19T07:27:23;19.10;69.90
29007;DHT22;16104;48.642;9.008;2023-09-19T07:32:19;19.10;69.60
29007;DHT22;16104;48.642;9.008;2023-09-19T07:37:15;19.20;69.30
29007;DHT22;16104;48.642;9.008;2023-09-19T07:42:11;19.30;68.70
29007;DHT22;16104;48.642;9.008;2023-09-19T07:47:14;19.30;68.40
29007;DHT22;16104;48.642;9.008;2023-09-19T07:52:09;19.30;68.30
29007;DHT22;16104;48.642;9.008;2023-09-19T07:57:05;19.40;67.90
29007;DHT22;16104;48.642;9.008;2023-09-19T08:02:01;19.40;68.30
29007;DHT22;16104;48.642;9.008;2023-09-19T08:06:56;19.50;68.50
29007;DHT22;16104;48.642;9.008;2023-09-19T08:11:55;19.60;68.90
29007;DHT22;16104;48.642;9.008;2023-09-19T08:16:51;19.60;68.20
29007;DHT22;16104;48.642;9.008;2023-09-19T08:21:47;19.70;67.80
29007;DHT22;16104;48.642;9.008;2023-09-19T08:26:42;19.80;66.20
29007;DHT22;16104;48.642;9.008;2023-09-19T08:31:40;19.90;66.00
29007;DHT22;16104;48.642;9.008;2023-09-19T08:36:35;19.90;65.90
29007;DHT22;16104;48.642;9.008;2023-09-19T08:41:32;20.00;65.00
29007;DHT22;16104;48.642;9.008;2023-09-19T08:46:30;20.10;64.50
29007;DHT22;16104;48.642;9.008;2023-09-19T08:51:30;20.20;64.20
29007;DHT22;16104;48.642;9.008;2023-09-19T08:56:29;20.30;64.60
29007;DHT22;16104;48.642;9.008;2023-09-19T09:01:27;20.40;63.90
29007;DHT22;16104;48.642;9.008;2023-09-19T09:06:25;20.60;63.30
29007;DHT22;16104;48.642;9.008;2023-09-19T09:11:21;20.70;62.50
29007;DHT22;16104;48.642;9.008;2023-09-19T09:16:20;20.80;62.20
29007;DHT22;16104;48.642;9.008;2023-09-19T09:21:15;21.00;62.00
29007;DHT22;16104;48.642;9.008;2023-09-19T09:26:11;21.10;60.90
29007;DHT22;16104;48.642;9.008;2023-09-19T09:31:22;21.30;60.50
29007;DHT22;16104;48.642;9.008;2023-09-19T09:36:37;21.40;58.30
29007;DHT22;16104;48.642;9.008;2023-09-19T09:41:36;21.60;58.50
29007;DHT22;16104;48.642;9.008;2023-09-19T09:46:32;21.80;58.60
29007;DHT22;16104;48.642;9.008;2023-09-19T09:52:02;22.00;57.50
29007;DHT22;16104;48.642;9.008;2023-09-19T09:57:09;22.10;56.10
29007;DHT22;16104;48.642;9.008;2023-09-19T10:02:34;22.20;55.10
29007;DHT22;16104;48.642;9.008;2023-09-19T10:07:36;22.30;55.00
29007;DHT22;16104;48.642;9.008;2023-09-19T10:12:43;22.30;55.70
29007;DHT22;16104;48.642;9.008;2023-09-19T10:17:43;22.50;54.70
29007;DHT22;16104;48.642;9.008;2023-09-19T10:22:42;22.60;54.60
29007;DHT22;16104;48.642;9.008;2023-09-19T10:27:38;22.70;54.50
29007;DHT22;16104;48.642;9.008;2023-09-19T10:32:35;22.70;54.30
29007;DHT22;16104;48.642;9.008;2023-09-19T10:37:32;22.70;54.00
29007;DHT22;16104;48.642;9.008;2023-09-19T10:42:31;22.80;54.00
29007;DHT22;16104;48.642;9.008;2023-09-19T10:47:28;22.70;53.50
29007;DHT22;16104;48.642;9.008;2023-09-19T10:52:25;22.70;54.50
29007;DHT22;16104;48.642;9.008;2023-09-19T10:57:22;22.70;53.10
29007;DHT22;16104;48.642;9.008;2023-09-19T11:02:19;22.70;53.50
29007;DHT22;16104;48.642;9.008;2023-09-19T11:07:15;22.60;52.90
29007;DHT22;16104;48.642;9.008;2023-09-19T11:12:10;22.60;53.00
29007;DHT22;16104;48.642;9.008;2023-09-19T11:22:11;22.50;53.50
29007;DHT22;16104;48.642;9.008;2023-09-19T11:27:14;22.60;53.60
29007;DHT22;16104;48.642;9.008;2023-09-19T11:32:10;22.50;52.90
29007;DHT22;16104;48.642;9.008;2023-09-19T11:42:47;22.70;53.90
29007;DHT22;16104;48.642;9.008;2023-09-19T11:47:49;22.90;53.30
29007;DHT22;16104;48.642;9.008;2023-09-19T11:52:46;23.00;53.90
29007;DHT22;16104;48.642;9.008;2023-09-19T11:57:42;23.10;53.20
29007;DHT22;16104;48.642;9.008;2023-09-19T12:02:39;23.20;52.70
29007;DHT22;16104;48.642;9.008;2023-09-19T12:07:43;23.20;52.70
29007;DHT22;16104;48.642;9.008;2023-09-19T12:12:47;23.40;53.90
29007;DHT22;16104;48.642;9.008;2023-09-19T12:17:47;23.50;52.30
29007;DHT22;16104;48.642;9.008;2023-09-19T12:22:46;23.70;52.60
29007;DHT22;16104;48.642;9.008;2023-09-19T12:27:43;24.00;52.00
29007;DHT22;16104;48.642;9.008;2023-09-19T12:32:59;24.20;51.80
29007;DHT22;16104;48.642;9.008;2023-09-19T12:37:54;24.50;51.30
29007;DHT22;16104;48.642;9.008;2023-09-19T12:42:50;24.70;51.10
29007;DHT22;16104;48.642;9.008;2023-09-19T12:53:25;24.90;49.50
29007;DHT22;16104;48.642;9.008;2023-09-19T12:58:21;24.90;49.20
29007;DHT22;16104;48.642;9.008;2023-09-19T13:03:27;24.90;50.20
29007;DHT22;16104;48.642;9.008;2023-09-19T13:08:31;24.90;49.80
29007;DHT22;16104;48.642;9.008;2023-09-19T13:13:33;25.10;50.90
29007;DHT22;16104;48.642;9.008;2023-09-19T13:18:32;25.40;49.70
29007;DHT22;16104;48.642;9.008;2023-09-19T13:23:28;25.70;49.30
29007;DHT22;16104;48.642;9.008;2023-09-19T13:28:24;26.00;48.60
29007;DHT22;16104;48.642;9.008;2023-09-19T13:33:20;26.30;48.20
29007;DHT22;16104;48.642;9.008;2023-09-19T13:38:16;26.60;47.70
29007;DHT22;16104;48.642;9.008;2023-09-19T13:43:14;26.80;47.40
29007;DHT22;16104;48.642;9.008;2023-09-19T13:48:09;27.00;46.50
29007;DHT22;16104;48.642;9.008;2023-09-19T13:53:06;27.20;45.60
29007;DHT22;16104;48.642;9.008;2023-09-19T13:58:02;27.20;45.00
29007;DHT22;16104;48.642;9.008;2023-09-19T14:02:57;27.20;45.60
29007;DHT22;16104;48.642;9.008;2023-09-19T14:07:53;27.20;45.60
29007;DHT22;16104;48.642;9.008;2023-09-19T14:12:50;27.40;45.10
29007;DHT22;16104;48.642;9.008;2023-09-19T14:17:45;27.50;44.40
29007;DHT22;16104;48.642;9.008;2023-09-19T14:22:41;27.60;43.90
29007;DHT22;16104;48.642;9.008;2023-09-19T14:27:36;27.80;43.40
29007;DHT22;16104;48.642;9.008;2023-09-19T14:32:32;27.90;43.00
29007;DHT22;16104;48.642;9.008;2023-09-19T14:37:28;28.00;43.10
29007;DHT22;16104;48.642;9.008;2023-09-19T14:42:24;28.00;42.50
29007;DHT22;16104;48.642;9.008;2023-09-19T14:47:19;28.00;41.50
29007;DHT22;16104;48.642;9.008;2023-09-19T14:52:15;28.10;41.60
29007;DHT22;16104;48.642;9.008;2023-09-19T14:57:11;28.10;41.00
29007;DHT22;16104;48.642;9.008;2023-09-19T15:02:09;28.00;40.50
29007;DHT22;16104;48.642;9.008;2023-09-19T15:07:04;28.00;40.50
29007;DHT22;16104;48.642;9.008;2023-09-19T15:12:00;27.90;41.20
29007;DHT22;16104;48.642;9.008;2023-09-19T15:16:55;27.90;40.50
29007;DHT22;16104;48.642;9.008;2023-09-19T15:21:51;27.80;40.80
29007;DHT22;16104;48.642;9.008;2023-09-19T15:26:46;27.80;40.90
29007;DHT22;16104;48.642;9.008;2023-09-19T15:31:43;27.80;41.20
29007;DHT22;16104;48.642;9.008;2023-09-19T15:36:38;27.80;40.60
29007;DHT22;16104;48.642;9.008;2023-09-19T15:41:39;27.70;41.00
29007;DHT22;16104;48.642;9.008;2023-09-19T15:46:35;27.60;40.30
29007;DHT22;16104;48.642;9.008;2023-09-19T15:51:30;27.60;40.90
29007;DHT22;16104;48.642;9.008;2023-09-19T15:56:26;27.50;40.20
29007;DHT22;16104;48.642;9.008;2023-09-19T16:01:22;27.40;40.70
29007;DHT22;16104;48.642;9.008;2023-09-19T16:06:20;27.30;40.60
29007;DHT22;16104;48.642;9.008;2023-09-19T16:11:17;27.10;40.50
29007;DHT22;16104;48.642;9.008;2023-09-19T16:16:13;27.00;40.90
29007;DHT22;16104;48.642;9.008;2023-09-19T16:21:11;26.80;41.10
29007;DHT22;16104;48.642;9.008;2023-09-19T16:26:08;26.70;40.90
29007;DHT22;16104;48.642;9.008;2023-09-19T16:31:04;26.60;40.90
29007;DHT22;16104;48.642;9.008;2023-09-19T16:36:01;26.40;41.10
29007;DHT22;16104;48.642;9.008;2023-09-19T16:40:58;26.20;41.20
29007;DHT22;16104;48.642;9.008;2023-09-19T16:45:58;26.10;41.70
29007;DHT22;16104;48.642;9.008;2023-09-19T16:50:54;25.90;41.60
29007;DHT22;16104;48.642;9.008;2023-09-19T16:55:49;25.70;41.90
29007;DHT22;16104;48.642;9.008;2023-09-19T17:00:45;25.50;41.90
29007;DHT22;16104;48.642;9.008;2023-09-19T17:05:44;25.40;42.00
29007;DHT22;16104;48.642;9.008;2023-09-19T17:10:42;25.20;42.30
29007;DHT22;16104;48.642;9.008;2023-09-19T17:15:40;25.00;42.60
29007;DHT22;16104;48.642;9.008;2023-09-19T17:20:41;24.80;42.80
29007;DHT22;16104;48.642;9.008;2023-09-19T17:25:36;24.70;43.10
29007;DHT22;16104;48.642;9.008;2023-09-19T17:30:32;24.50;43.50
29007;DHT22;16104;48.642;9.008;2023-09-19T17:35:28;24.40;43.70
29007;DHT22;16104;48.642;9.008;2023-09-19T17:40:23;24.20;43.90
29007;DHT22;16104;48.642;9.008;2023-09-19T17:45:19;24.00;44.20
29007;DHT22;16104;48.642;9.008;2023-09-19T17:50:14;23.80;44.40
29007;DHT22;16104;48.642;9.008;2023-09-19T17:55:12;23.70;44.60
29007;DHT22;16104;48.642;9.008;2023-09-19T18:00:09;23.50;44.90
29007;DHT22;16104;48.642;9.008;2023-09-19T18:05:07;23.40;45.10
29007;DHT22;16104;48.642;9.008;2023-09-19T18:10:11;23.20;45.30
29007;DHT22;16104;48.642;9.008;2023-09-19T18:15:09;23.10;45.50
29007;DHT22;16104;48.642;9.008;2023-09-19T18:20:05;22.90;45.50
29007;DHT22;16104;48.642;9.008;2023-09-19T18:25:01;22.80;45.60
29007;DHT22;16104;48.642;9.008;2023-09-19T18:29:57;22.60;45.80
29007;DHT22;16104;48.642;9.008;2023-09-19T18:34:53;22.50;46.50
29007;DHT22;16104;48.642;9.008;2023-09-19T18:39:48;22.30;46.80
29007;DHT22;16104;48.642;9.008;2023-09-19T18:44:45;22.20;46.90
29007;DHT22;16104;48.642;9.008;2023-09-19T18:49:41;22.00;47.10
29007;DHT22;16104;48.642;9.008;2023-09-19T18:54:37;21.80;47.20
29007;DHT22;16104;48.642;9.008;2023-09-19T18:59:34;21.70;47.40
29007;DHT22;16104;48.642;9.008;2023-09-19T19:04:30;21.60;47.50
29007;DHT22;16104;48.642;9.008;2023-09-19T19:09:25;21.40;47.60
29007;DHT22;16104;48.642;9.008;2023-09-19T19:14:21;21.30;47.90
29007;DHT22;16104;48.642;9.008;2023-09-19T19:19:17;21.20;48.20
29007;DHT22;16104;48.642;9.008;2023-09-19T19:24:12;21.10;48.50
29007;DHT22;16104;48.642;9.008;2023-09-19T19:29:09;21.00;48.90
29007;DHT22;16104;48.642;9.008;2023-09-19T19:34:05;20.90;49.30
29007;DHT22;16104;48.642;9.008;2023-09-19T19:39:02;20.80;49.50
29007;DHT22;16104;48.642;9.008;2023-09-19T19:43:58;20.70;49.80
29007;DHT22;16104;48.642;9.008;2023-09-19T19:48:53;20.60;49.90
29007;DHT22;16104;48.642;9.008;2023-09-19T19:53:49;20.50;50.20
29007;DHT22;16104;48.642;9.008;2023-09-19T19:58:45;20.40;50.30
29007;DHT22;16104;48.642;9.008;2023-09-19T20:03:43;20.30;50.60
29007;DHT22;16104;48.642;9.008;2023-09-19T20:08:38;20.20;50.80
29007;DHT22;16104;48.642;9.008;2023-09-19T20:13:34;20.10;50.80
29007;DHT22;16104;48.642;9.008;2023-09-19T20:18:29;20.00;50.80
29007;DHT22;16104;48.642;9.008;2023-09-19T20:23:25;19.90;50.80
29007;DHT22;16104;48.642;9.008;2023-09-19T20:28:21;19.80;51.00
29007;DHT22;16104;48.642;9.008;2023-09-19T20:33:17;19.70;51.00
29007;DHT22;16104;48.642;9.008;2023-09-19T20:38:12;19.70;51.20
29007;DHT22;16104;48.642;9.008;2023-09-19T20:43:08;19.60;51.20
29007;DHT22;16104;48.642;9.008;2023-09-19T20:48:04;19.50;51.20
29007;DHT22;16104;48.642;9.008;2023-09-19T20:52:59;19.50;51.40
29007;DHT22;16104;48.642;9.008;2023-09-19T20:57:55;19.40;51.50
29007;DHT22;16104;48.642;9.008;2023-09-19T21:02:50;19.40;51.70
29007;DHT22;16104;48.642;9.008;2023-09-19T21:07:49;19.30;52.00
29007;DHT22;16104;48.642;9.008;2023-09-19T21:12:46;19.20;52.20
29007;DHT22;16104;48.642;9.008;2023-09-19T21:17:43;19.10;52.20
29007;DHT22;16104;48.642;9.008;2023-09-19T21:22:41;19.00;52.20
29007;DHT22;16104;48.642;9.008;2023-09-19T21:27:36;19.00;52.40
29007;DHT22;16104;48.642;9.008;2023-09-19T21:32:32;18.90;52.40
29007;DHT22;16104;48.642;9.008;2023-09-19T21:37:28;18.90;52.70
29007;DHT22;16104;48.642;9.008;2023-09-19T21:42:24;18.80;52.80
29007;DHT22;16104;48.642;9.008;2023-09-19T21:47:19;18.80;53.00
29007;DHT22;16104;48.642;9.008;2023-09-19T21:52:15;18.70;53.00
29007;DHT22;16104;48.642;9.008;2023-09-19T21:57:10;18.60;53.30
29007;DHT22;16104;48.642;9.008;2023-09-19T22:02:06;18.60;53.40
29007;DHT22;16104;48.642;9.008;2023-09-19T22:07:02;18.50;53.70
29007;DHT22;16104;48.642;9.008;2023-09-19T22:11:58;18.40;53.90
29007;DHT22;16104;48.642;9.008;2023-09-19T22:16:56;18.40;54.10
29007;DHT22;16104;48.642;9.008;2023-09-19T22:21:55;18.40;54.30
29007;DHT22;16104;48.642;9.008;2023-09-19T22:26:51;18.30;54.40
29007;DHT22;16104;48.642;9.008;2023-09-19T22:31:46;18.30;54.50
29007;DHT22;16104;48.642;9.008;2023-09-19T22:36:42;18.20;55.20
29007;DHT22;16104;48.642;9.008;2023-09-19T22:41:43;18.20;54.80
29007;DHT22;16104;48.642;9.008;2023-09-19T22:46:41;18.10;55.00
29007;DHT22;16104;48.642;9.008;2023-09-19T22:51:37;18.10;55.30
29007;DHT22;16104;48.642;9.008;2023-09-19T22:56:37;18.10;55.50
29007;DHT22;16104;48.642;9.008;2023-09-19T23:01:32;18.00;55.40
29007;DHT22;16104;48.642;9.008;2023-09-19T23:06:31;18.00;55.60
29007;DHT22;16104;48.642;9.008;2023-09-19T23:11:28;18.00;55.70
29007;DHT22;16104;48.642;9.008;2023-09-19T23:16:27;17.90;56.00
29007;DHT22;16104;48.642;9.008;2023-09-19T23:21:24;17.90;56.30
29007;DHT22;16104;48.642;9.008;2023-09-19T23:26:23;17.90;56.20
29007;DHT22;16104;48.642;9.008;2023-09-19T23:31:22;17.80;56.20
29007;DHT22;16104;48.642;9.008;2023-09-19T23:36:17;17.80;56.30
29007;DHT22;16104;48.642;9.008;2023-09-19T23:41:13;17.70;56.30
29007;DHT22;16104;48.642;9.008;2023-09-19T23:46:16;17.70;56.60
29007;DHT22;16104;48.642;9.008;2023-09-19T23:51:11;17.70;56.60
29007;DHT22;16104;48.642;9.008;2023-09-19T23:56:08;17.60;56.70
